Time;durP1;ratioP1;P1;durP2;ratioP2;P2;SDS_P1;SDS_P2;PMS_P1;PMS_P2;Temp;Humidity;BMP_temperature;BMP_pressure;BME280_temperature;BME280_humidity;BME280_pressure;Samples;Min_cycle;Max_cycle;Signal;HPM_P1;HPM_P2
2022/02/15 00:00:41;;;;;;;6.30;4.03;;;;;;;;;;4977507;28;20050;-72
2022/02/15 00:03:11;;;;;;;6.65;4.93;;;;;;;;;;4994191;28;20039;-73
2022/02/15 00:05:39;;;;;;;9.05;5.30;;;;;;;;;;4995245;28;20405;-72
2022/02/15 00:08:08;;;;;;;14.45;5.10;;;;;;;;;;4994551;28;20054;-72
2022/02/15 00:10:36;;;;;;;8.27;5.10;;;;;;;;;;4995068;28;20050;-72
2022/02/15 00:13:03;;;;;;;9.32;5.00;;;;;;;;;;4994854;28;20030;-70
2022/02/15 00:15:31;;;;;;;6.28;4.30;;;;;;;;;;4995036;28;20043;-71
2022/02/15 00:17:59;;;;;;;6.90;4.57;;;;;;;;;;4995122;28;20046;-72
2022/02/15 00:20:29;;;;;;;4.97;4.20;;;;;;;;;;4994710;28;20066;-72
2022/02/15 00:22:56;;;;;;;4.25;3.85;;;;;;;;;;4993974;28;20397;-75
2022/02/15 00:25:24;;;;;;;5.88;4.25;;;;;;;;;;4994580;28;20042;-73
2022/02/15 00:27:53;;;;;;;6.57;3.83;;;;;;;;;;4977295;28;20049;-73
2022/02/15 00:30:22;;;;;;;5.45;3.53;;;;;;;;;;4976883;28;20498;-71
2022/02/15 00:32:51;;;;;;;5.13;3.63;;;;;;;;;;4976303;28;20050;-73
2022/02/15 00:35:20;;;;;;;7.13;4.05;;;;;;;;;;4994414;28;20502;-73
2022/02/15 00:37:47;;;;;;;7.95;3.60;;;;;;;;;;4994321;28;20042;-73
2022/02/15 00:40:15;;;;;;;8.23;3.67;;;;;;;;;;4994768;28;20423;-71
2022/02/15 00:42:47;;;;;;;10.60;4.00;;;;;;;;;;4994848;28;20047;-74
2022/02/15 00:45:15;;;;;;;6.15;3.97;;;;;;;;;;4993999;28;20046;-73
2022/02/15 00:47:43;;;;;;;8.52;4.22;;;;;;;;;;4976666;28;20050;-72
2022/02/15 00:50:11;;;;;;;5.68;4.47;;;;;;;;;;4993879;28;20053;-71
2022/02/15 00:52:39;;;;;;;6.53;4.22;;;;;;;;;;4994151;28;20057;-72
2022/02/15 00:55:08;;;;;;;7.50;4.32;;;;;;;;;;4976514;28;20046;-72
2022/02/15 00:57:37;;;;;;;5.70;4.15;;;;;;;;;;4993936;28;20034;-72
2022/02/15 01:00:05;;;;;;;7.38;4.07;;;;;;;;;;4976750;28;20569;-72
2022/02/15 01:02:33;;;;;;;6.85;4.05;;;;;;;;;;4976354;28;20466;-71
2022/02/15 01:05:02;;;;;;;5.60;4.07;;;;;;;;;;4993603;28;20049;-71
2022/02/15 01:07:30;;;;;;;7.65;3.92;;;;;;;;;;4976078;28;20152;-71
2022/02/15 01:09:57;;;;;;;6.90;4.25;;;;;;;;;;4993596;28;20145;-73
2022/02/15 01:12:25;;;;;;;4.85;3.92;;;;;;;;;;4976202;28;20359;-72
2022/02/15 01:14:52;;;;;;;6.35;4.18;;;;;;;;;;4976232;28;20462;-72
2022/02/15 01:17:20;;;;;;;6.93;4.15;;;;;;;;;;4993954;28;20038;-72
2022/02/15 01:19:51;;;;;;;6.15;3.92;;;;;;;;;;4993915;28;20046;-72
2022/02/15 01:22:19;;;;;;;6.43;3.88;;;;;;;;;;4960585;28;20069;-72
2022/02/15 01:24:48;;;;;;;8.60;4.57;;;;;;;;;;4993339;28;20053;-73
2022/02/15 01:27:24;;;;;;;7.47;4.35;;;;;;;;;;4975849;28;20064;-71
2022/02/15 01:29:56;;;;;;;6.40;3.75;;;;;;;;;;4960641;28;20149;-72
2022/02/15 01:32:24;;;;;;;4.97;3.75;;;;;;;;;;4975872;28;20482;-74
2022/02/15 01:34:51;;;;;;;4.72;3.70;;;;;;;;;;4976230;28;20124;-72
2022/02/15 01:37:22;;;;;;;7.28;4.22;;;;;;;;;;4976835;28;20093;-72
2022/02/15 01:39:51;;;;;;;6.40;3.80;;;;;;;;;;4993662;28;20485;-71
2022/02/15 01:42:19;;;;;;;6.55;3.75;;;;;;;;;;4976252;28;20047;-72
2022/02/15 01:44:48;;;;;;;6.25;3.70;;;;;;;;;;4975720;28;20053;-71
2022/02/15 01:47:27;;;;;;;8.13;4.10;;;;;;;;;;4975784;28;20100;-72
2022/02/15 01:49:59;;;;;;;7.68;4.15;;;;;;;;;;4975877;28;20050;-71
2022/02/15 01:52:29;;;;;;;5.70;3.65;;;;;;;;;;4960164;28;20059;-73
2022/02/15 01:54:58;;;;;;;6.68;3.72;;;;;;;;;;4975522;28;20449;-73
2022/02/15 01:57:27;;;;;;;7.70;4.18;;;;;;;;;;4975891;28;20054;-72
2022/02/15 02:00:16;;;;;;;5.43;4.32;;;;;;;;;;4979649;28;20078;-71
2022/02/15 02:02:48;;;;;;;10.48;4.75;;;;;;;;;;4975986;28;20038;-72
2022/02/15 02:08:08;;;;;;;7.90;3.95;;;;;;;;;;4975596;28;20077;-72
2022/02/15 02:10:44;;;;;;;4.78;4.07;;;;;;;;;;4975625;28;20047;-72
2022/02/15 02:13:19;;;;;;;4.53;3.92;;;;;;;;;;4968147;28;20446;-72
2022/02/15 02:15:52;;;;;;;4.65;3.90;;;;;;;;;;4975759;28;20097;-72
2022/02/15 02:18:24;;;;;;;5.15;3.83;;;;;;;;;;4968923;28;20049;-73
2022/02/15 02:20:55;;;;;;;5.97;3.63;;;;;;;;;;4975575;28;20057;-71
2022/02/15 02:23:24;;;;;;;5.90;3.90;;;;;;;;;;4992788;28;20085;-73
2022/02/15 02:25:56;;;;;;;5.63;4.15;;;;;;;;;;4975501;28;20042;-71
2022/02/15 02:28:26;;;;;;;5.68;3.95;;;;;;;;;;4979351;28;20042;-72
2022/02/15 02:30:55;;;;;;;12.48;4.25;;;;;;;;;;4979505;28;20046;-71
2022/02/15 02:33:22;;;;;;;7.40;4.82;;;;;;;;;;4979081;28;20038;-71
2022/02/15 02:36:00;;;;;;;7.95;4.25;;;;;;;;;;4979453;28;20138;-73
2022/02/15 02:38:30;;;;;;;5.70;4.22;;;;;;;;;;4979509;28;20050;-72
2022/02/15 02:41:04;;;;;;;6.13;4.32;;;;;;;;;;4979395;28;20467;-72
2022/02/15 02:43:36;;;;;;;6.20;4.13;;;;;;;;;;4979231;28;20050;-71
2022/02/15 02:46:04;;;;;;;6.00;4.32;;;;;;;;;;4996335;28;20069;-72
2022/02/15 02:48:32;;;;;;;5.70;4.32;;;;;;;;;;4979087;28;20093;-73
2022/02/15 02:51:00;;;;;;;9.30;4.88;;;;;;;;;;4996746;28;20046;-72
2022/02/15 02:53:28;;;;;;;6.38;5.15;;;;;;;;;;4979358;28;20053;-71
2022/02/15 02:55:55;;;;;;;7.57;5.70;;;;;;;;;;4979216;28;20482;-72
2022/02/15 02:58:27;;;;;;;7.55;5.53;;;;;;;;;;4947914;28;20097;-71
2022/02/15 03:00:56;;;;;;;12.30;5.82;;;;;;;;;;4979308;28;20061;-72
2022/02/15 03:03:28;;;;;;;8.15;5.13;;;;;;;;;;4978912;28;20058;-73
2022/02/15 03:05:58;;;;;;;7.35;5.00;;;;;;;;;;4978718;28;20121;-71
2022/02/15 03:08:26;;;;;;;7.70;4.88;;;;;;;;;;4978407;28;20100;-73
2022/02/15 03:10:54;;;;;;;10.05;5.20;;;;;;;;;;4996789;28;20064;-73
2022/02/15 03:13:54;;;;;;;5.18;4.68;;;;;;;;;;4977467;28;20050;-72
2022/02/15 03:16:27;;;;;;;9.23;4.57;;;;;;;;;;4979120;28;20506;-71
2022/02/15 03:18:57;;;;;;;9.63;4.57;;;;;;;;;;4978642;28;20077;-73
2022/02/15 03:21:27;;;;;;;4.32;3.90;;;;;;;;;;4978224;28;20441;-71
2022/02/15 03:23:55;;;;;;;7.93;4.88;;;;;;;;;;4978531;28;20058;-72
2022/02/15 03:26:24;;;;;;;8.23;4.78;;;;;;;;;;4978275;28;20157;-73
2022/02/15 03:28:52;;;;;;;4.22;3.83;;;;;;;;;;4994923;28;20417;-73
2022/02/15 03:31:20;;;;;;;7.43;3.70;;;;;;;;;;4962676;28;20399;-73
2022/02/15 03:33:53;;;;;;;4.47;3.20;;;;;;;;;;4977963;28;20069;-72
2022/02/15 03:36:21;;;;;;;3.38;3.03;;;;;;;;;;4978502;28;20081;-71
2022/02/15 03:38:56;;;;;;;4.40;3.25;;;;;;;;;;4978174;28;20042;-72
2022/02/15 03:44:30;;;;;;;5.82;3.03;;;;;;;;;;4977590;28;20737;-72
2022/02/15 03:47:04;;;;;;;6.43;3.65;;;;;;;;;;4978013;28;20056;-73
2022/02/15 03:49:39;;;;;;;3.10;2.75;;;;;;;;;;4977993;28;20078;-72
2022/02/15 03:52:09;;;;;;;;;;;;;;;;;;4978375;28;20053;-71
2022/02/15 03:54:37;;;;;;;5.55;3.00;;;;;;;;;;4978115;28;19956;-72
2022/02/15 03:57:07;;;;;;;5.32;3.15;;;;;;;;;;4977898;28;20047;-72
2022/02/15 03:59:35;;;;;;;8.52;3.40;;;;;;;;;;4962309;28;20074;-72
2022/02/15 04:02:09;;;;;;;5.53;3.30;;;;;;;;;;4995545;28;20507;-73
2022/02/15 04:04:38;;;;;;;4.75;3.47;;;;;;;;;;4977785;28;20073;-71
2022/02/15 04:07:06;;;;;;;7.60;3.45;;;;;;;;;;4977606;28;20050;-73
2022/02/15 04:09:34;;;;;;;5.32;3.35;;;;;;;;;;4977502;28;20069;-72
2022/02/15 04:12:05;;;;;;;6.38;4.32;;;;;;;;;;4977567;28;20058;-72
2022/02/15 04:14:37;;;;;;;8.70;5.30;;;;;;;;;;4977515;28;20065;-73
2022/02/15 04:17:06;;;;;;;9.95;5.10;;;;;;;;;;4964745;28;20045;-71
2022/02/15 04:19:35;;;;;;;6.72;4.10;;;;;;;;;;4958476;28;20129;-73
2022/02/15 04:22:03;;;;;;;3.97;3.10;;;;;;;;;;4942352;28;20070;-73
2022/02/15 04:24:34;;;;;;;3.85;3.10;;;;;;;;;;4958295;28;20137;-72
2022/02/15 04:27:02;;;;;;;4.65;3.05;;;;;;;;;;4942341;28;20043;-70
2022/02/15 04:29:30;;;;;;;4.00;3.10;;;;;;;;;;4957419;28;20046;-73
2022/02/15 04:31:59;;;;;;;4.88;3.15;;;;;;;;;;4956943;28;20450;-71
2022/02/15 04:34:31;;;;;;;4.22;3.35;;;;;;;;;;4956844;28;20047;-73
2022/02/15 04:36:59;;;;;;;5.60;3.10;;;;;;;;;;4957144;28;20047;-71
2022/02/15 04:39:34;;;;;;;3.92;2.70;;;;;;;;;;4957014;28;20043;-71
2022/02/15 04:42:08;;;;;;;5.00;2.95;;;;;;;;;;4956892;28;20072;-72
2022/02/15 04:44:35;;;;;;;5.10;3.17;;;;;;;;;;4956704;28;20057;-71
2022/02/15 04:47:04;;;;;;;3.63;2.58;;;;;;;;;;4956860;28;20054;-73
2022/02/15 04:49:32;;;;;;;6.50;2.97;;;;;;;;;;4956130;28;20078;-72
2022/02/15 04:52:05;;;;;;;9.52;3.30;;;;;;;;;;4956740;28;20072;-71
2022/02/15 04:54:36;;;;;;;4.53;3.40;;;;;;;;;;4957242;28;20513;-73
2022/02/15 04:57:03;;;;;;;6.15;3.25;;;;;;;;;;4974013;28;20045;-74
2022/02/15 04:59:34;;;;;;;5.18;3.92;;;;;;;;;;4956890;28;20054;-72
2022/02/15 05:02:02;;;;;;;5.53;3.65;;;;;;;;;;4940895;28;20117;-73
2022/02/15 05:04:50;;;;;;;5.13;3.83;;;;;;;;;;4956718;28;20581;-72
2022/02/15 05:07:35;;;;;;;5.15;3.45;;;;;;;;;;4956328;28;20447;-72
2022/02/15 05:10:06;;;;;;;7.45;3.78;;;;;;;;;;4972451;28;20062;-72
2022/02/15 05:12:38;;;;;;;3.78;3.40;;;;;;;;;;4972220;28;20067;-72
2022/02/15 05:15:10;;;;;;;5.63;4.28;;;;;;;;;;4956602;28;20101;-73
2022/02/15 05:17:56;;;;;;;4.35;3.25;;;;;;;;;;4972545;28;20047;-72
2022/02/15 05:20:24;;;;;;;5.35;3.65;;;;;;;;;;4972210;28;20085;-73
2022/02/15 05:22:54;;;;;;;3.85;3.45;;;;;;;;;;4956075;28;20058;-73
2022/02/15 05:25:22;;;;;;;5.30;3.63;;;;;;;;;;4940187;28;20061;-71
2022/02/15 05:27:52;;;;;;;20.92;11.43;;;;;;;;;;4962314;28;20512;-71
2022/02/15 05:30:22;;;;;;;8.57;4.85;;;;;;;;;;4932272;28;1259953;-73
2022/02/15 05:33:13;;;;;;;9.32;6.30;;;;;;;;;;4975906;28;20065;-73
2022/02/15 05:35:50;;;;;;;5.43;4.32;;;;;;;;;;4976391;28;20112;-71
2022/02/15 05:38:20;;;;;;;6.80;4.90;;;;;;;;;;4992295;28;20130;-71
2022/02/15 05:40:50;;;;;;;7.05;4.70;;;;;;;;;;4992597;28;20042;-71
2022/02/15 05:43:18;;;;;;;10.93;5.30;;;;;;;;;;4992232;28;20049;-71
2022/02/15 05:45:52;;;;;;;10.15;5.38;;;;;;;;;;4991678;28;20141;-72
2022/02/15 05:48:27;;;;;;;10.43;5.50;;;;;;;;;;4993507;28;20565;-72
2022/02/15 05:51:02;;;;;;;7.20;5.55;;;;;;;;;;4975645;28;20092;-71
2022/02/15 05:53:41;;;;;;;11.15;6.30;;;;;;;;;;4961531;28;20050;-73
2022/02/15 05:56:17;;;;;;;11.18;5.72;;;;;;;;;;4968471;28;20043;-72
2022/02/15 05:58:59;;;;;;;8.48;5.93;;;;;;;;;;4975612;28;20050;-72
2022/02/15 06:01:55;;;;;;;6.88;4.72;;;;;;;;;;4976265;28;20062;-73
2022/02/15 06:04:28;;;;;;;9.02;4.03;;;;;;;;;;4964158;28;20046;-71
2022/02/15 06:07:06;;;;;;;8.23;4.90;;;;;;;;;;4972217;28;20065;-72
2022/02/15 06:09:35;;;;;;;9.23;3.70;;;;;;;;;;4956427;28;20059;-71
2022/02/15 06:12:05;;;;;;;6.18;4.60;;;;;;;;;;4956633;28;20141;-70
2022/02/15 06:14:47;;;;;;;8.20;4.13;;;;;;;;;;4956506;28;20074;-70
2022/02/15 06:17:17;;;;;;;7.18;4.00;;;;;;;;;;4972781;28;20050;-73
2022/02/15 06:19:49;;;;;;;4.95;3.42;;;;;;;;;;4956572;28;20510;-70
2022/02/15 06:22:19;;;;;;;6.05;3.50;;;;;;;;;;4955778;28;20047;-70
2022/02/15 06:24:47;;;;;;;9.20;3.85;;;;;;;;;;4973723;28;20498;-72
2022/02/15 06:27:25;;;;;;;9.38;4.18;;;;;;;;;;4941826;28;20409;-70
2022/02/15 06:30:14;;;;;;;7.70;4.80;;;;;;;;;;4969210;28;20054;-72
2022/02/15 06:32:49;;;;;;;12.20;3.90;;;;;;;;;;4959241;28;20413;-70
2022/02/15 06:35:17;;;;;;;7.03;4.28;;;;;;;;;;4975268;28;20051;-69
2022/02/15 06:37:57;;;;;;;9.82;3.92;;;;;;;;;;4974974;28;20050;-70
2022/02/15 06:40:26;;;;;;;7.53;3.35;;;;;;;;;;4975776;28;20042;-70
2022/02/15 06:42:59;;;;;;;11.35;3.80;;;;;;;;;;4975470;28;20104;-70
2022/02/15 06:45:30;;;;;;;7.13;3.65;;;;;;;;;;4975059;28;20450;-71
2022/02/15 06:47:58;;;;;;;8.85;3.60;;;;;;;;;;4975509;28;20069;-69
2022/02/15 06:50:26;;;;;;;13.27;5.57;;;;;;;;;;4975622;28;20050;-71
2022/02/15 06:53:27;;;;;;;23.40;8.73;;;;;;;;;;4968662;28;20049;-70
2022/02/15 06:56:11;;;;;;;20.02;6.25;;;;;;;;;;4993602;28;20581;-69
2022/02/15 06:58:49;;;;;;;11.00;4.15;;;;;;;;;;4974992;28;20478;-69
2022/02/15 07:01:22;;;;;;;9.27;4.13;;;;;;;;;;4974521;28;20062;-70
2022/02/15 07:03:54;;;;;;;7.55;4.15;;;;;;;;;;4975067;28;20524;-71
2022/02/15 07:06:21;;;;;;;10.55;4.47;;;;;;;;;;4990715;28;20474;-71
2022/02/15 07:08:50;;;;;;;8.88;4.15;;;;;;;;;;4974593;28;20140;-70
2022/02/15 07:11:21;;;;;;;6.05;3.40;;;;;;;;;;4990006;28;20391;-70
2022/02/15 07:13:54;;;;;;;5.38;3.70;;;;;;;;;;4977985;28;20042;-70
2022/02/15 07:16:24;;;;;;;6.93;3.50;;;;;;;;;;4976153;28;20474;-71
2022/02/15 07:18:54;;;;;;;10.20;3.97;;;;;;;;;;4977981;28;20035;-69
2022/02/15 07:21:49;;;;;;;8.48;3.47;;;;;;;;;;4980564;28;20120;-71
2022/02/15 07:24:41;;;;;;;7.45;3.80;;;;;;;;;;4995802;28;20533;-71
2022/02/15 07:27:35;;;;;;;8.90;4.10;;;;;;;;;;4991008;28;20413;-71
2022/02/15 07:30:08;;;;;;;8.18;4.30;;;;;;;;;;5034600;23;20051;-71
2022/02/15 07:32:50;;;;;;;8.02;3.80;;;;;;;;;;4952354;28;20039;-71
2022/02/15 07:35:22;;;;;;;8.13;3.88;;;;;;;;;;4947653;28;20051;-71
2022/02/15 07:37:50;;;;;;;9.50;3.95;;;;;;;;;;4967854;28;20070;-72
2022/02/15 07:40:23;;;;;;;8.05;3.88;;;;;;;;;;4966713;28;20049;-72
2022/02/15 07:42:52;;;;;;;12.10;4.10;;;;;;;;;;4942978;28;20082;-73
2022/02/15 07:45:37;;;;;;;7.30;3.40;;;;;;;;;;4938998;28;20043;-71
2022/02/15 07:48:05;;;;;;;7.13;3.22;;;;;;;;;;4964483;28;20043;-74
2022/02/15 07:50:37;;;;;;;6.72;2.90;;;;;;;;;;4967356;28;20057;-73
2022/02/15 07:53:05;;;;;;;12.93;3.88;;;;;;;;;;4965775;28;20035;-71
2022/02/15 07:55:33;;;;;;;5.05;2.33;;;;;;;;;;4966566;28;20046;-71
2022/02/15 07:58:01;;;;;;;7.50;3.08;;;;;;;;;;4963887;28;20064;-71
2022/02/15 08:00:30;;;;;;;7.40;3.60;;;;;;;;;;4966312;28;20046;-71
2022/02/15 08:02:59;;;;;;;5.40;3.38;;;;;;;;;;4948006;28;20123;-71
2022/02/15 08:05:28;;;;;;;6.15;1.92;;;;;;;;;;4965953;28;20042;-71
2022/02/15 08:08:06;;;;;;;6.20;2.85;;;;;;;;;;4948282;28;20146;-73
2022/02/15 08:10:35;;;;;;;6.28;1.90;;;;;;;;;;4964492;28;20383;-72
2022/02/15 08:13:05;;;;;;;4.55;1.70;;;;;;;;;;4965001;28;20506;-72
2022/02/15 08:15:36;;;;;;;3.72;1.70;;;;;;;;;;4964904;28;20505;-72
2022/02/15 08:18:04;;;;;;;5.35;2.22;;;;;;;;;;4966217;28;20475;-71
2022/02/15 08:20:32;;;;;;;4.97;2.20;;;;;;;;;;4966437;28;20057;-73
2022/02/15 08:23:01;;;;;;;4.55;1.60;;;;;;;;;;4955355;28;20067;-73
2022/02/15 08:25:29;;;;;;;5.40;2.00;;;;;;;;;;4964160;28;20039;-72
2022/02/15 08:27:57;;;;;;;4.68;1.50;;;;;;;;;;4966114;28;20133;-73
2022/02/15 08:30:27;;;;;;;4.22;1.77;;;;;;;;;;4948252;28;20075;-72
2022/02/15 08:32:58;;;;;;;5.50;1.83;;;;;;;;;;4964219;28;20043;-72
2022/02/15 08:35:28;;;;;;;7.15;2.10;;;;;;;;;;4966558;28;20031;-72
2022/02/15 08:37:56;;;;;;;9.48;5.50;;;;;;;;;;4969965;28;20047;-71
2022/02/15 08:40:25;;;;;;;14.75;7.07;;;;;;;;;;4958731;28;20105;-73
2022/02/15 08:42:53;;;;;;;17.63;7.05;;;;;;;;;;4973953;28;20130;-72
2022/02/15 08:45:24;;;;;;;14.65;6.35;;;;;;;;;;4974626;28;20046;-73
2022/02/15 08:47:52;;;;;;;13.68;7.40;;;;;;;;;;4975104;28;20402;-72
2022/02/15 08:50:20;;;;;;;12.82;5.47;;;;;;;;;;4973987;28;20062;-73
2022/02/15 08:52:48;;;;;;;15.95;7.63;;;;;;;;;;4974118;28;20046;-72
2022/02/15 08:55:16;;;;;;;15.05;5.85;;;;;;;;;;4957850;28;20434;-72
2022/02/15 08:57:45;;;;;;;10.40;5.38;;;;;;;;;;4974541;28;20093;-72
2022/02/15 09:00:14;;;;;;;10.05;4.75;;;;;;;;;;4975124;28;20109;-73
2022/02/15 09:02:46;;;;;;;8.70;5.38;;;;;;;;;;4974736;28;20122;-72
2022/02/15 09:05:14;;;;;;;12.40;5.93;;;;;;;;;;4974555;28;20046;-71
2022/02/15 09:07:42;;;;;;;17.48;7.20;;;;;;;;;;4957712;28;20053;-72
2022/02/15 09:10:10;;;;;;;21.60;6.50;;;;;;;;;;4951023;28;20046;-72
2022/02/15 09:12:41;;;;;;;12.40;6.57;;;;;;;;;;4954422;28;20113;-73
2022/02/15 09:15:17;;;;;;;12.20;6.40;;;;;;;;;;4953191;28;20409;-71
2022/02/15 09:17:46;;;;;;;10.38;4.90;;;;;;;;;;4971391;28;20035;-71
2022/02/15 09:20:14;;;;;;;10.80;5.38;;;;;;;;;;4955697;28;20127;-71
2022/02/15 09:22:42;;;;;;;11.95;5.63;;;;;;;;;;4938817;28;20050;-71
2022/02/15 09:25:10;;;;;;;9.18;5.20;;;;;;;;;;4955721;28;20043;-74
2022/02/15 09:27:39;;;;;;;7.72;4.03;;;;;;;;;;4938854;28;20039;-71
2022/02/15 09:30:06;;;;;;;7.65;5.05;;;;;;;;;;4971356;28;20141;-70
2022/02/15 09:32:34;;;;;;;20.58;6.07;;;;;;;;;;4950578;28;20053;-73
2022/02/15 09:35:03;;;;;;;14.07;4.95;;;;;;;;;;4962368;28;21555;-73
2022/02/15 09:37:33;;;;;;;10.77;4.20;;;;;;;;;;4962723;28;20110;-71
2022/02/15 09:40:03;;;;;;;9.37;4.50;;;;;;;;;;4963108;28;20066;-72
2022/02/15 09:42:31;;;;;;;8.10;4.55;;;;;;;;;;4963985;28;20039;-73
2022/02/15 09:44:59;;;;;;;11.00;5.05;;;;;;;;;;4962543;28;20094;-74
2022/02/15 09:47:31;;;;;;;9.10;4.40;;;;;;;;;;4960792;28;21505;-74
2022/02/15 09:49:59;;;;;;;10.73;4.38;;;;;;;;;;4954925;28;20170;-71
2022/02/15 09:52:28;;;;;;;6.75;3.13;;;;;;;;;;4946121;28;20050;-71
2022/02/15 09:55:00;;;;;;;5.07;1.95;;;;;;;;;;4963228;28;20050;-74
2022/02/15 09:57:28;;;;;;;3.35;2.13;;;;;;;;;;4963032;28;20429;-72
2022/02/15 09:59:57;;;;;;;4.72;2.03;;;;;;;;;;4963132;28;20437;-72
2022/02/15 10:02:34;;;;;;;4.35;1.80;;;;;;;;;;4963460;28;20494;-71
2022/02/15 10:05:04;;;;;;;10.13;2.17;;;;;;;;;;4963705;28;20442;-71
2022/02/15 10:07:34;;;;;;;5.18;2.10;;;;;;;;;;4963295;28;20043;-72
2022/02/15 10:10:02;;;;;;;6.53;2.30;;;;;;;;;;4943502;28;20144;-71
2022/02/15 10:12:32;;;;;;;6.38;2.60;;;;;;;;;;4943333;28;20054;-72
2022/02/15 10:15:00;;;;;;;7.35;2.35;;;;;;;;;;4960230;28;20047;-70
2022/02/15 10:17:28;;;;;;;5.78;2.60;;;;;;;;;;4960625;28;20118;-74
2022/02/15 10:19:57;;;;;;;8.25;3.35;;;;;;;;;;4962014;28;20043;-73
2022/02/15 10:22:25;;;;;;;7.63;2.75;;;;;;;;;;4959042;28;20035;-71
2022/02/15 10:24:55;;;;;;;8.05;3.00;;;;;;;;;;4963967;28;20039;-71
2022/02/15 10:27:32;;;;;;;9.20;3.28;;;;;;;;;;4963635;28;20438;-74
2022/02/15 10:30:05;;;;;;;7.15;3.70;;;;;;;;;;4962096;28;20521;-71
2022/02/15 10:32:32;;;;;;;8.70;3.58;;;;;;;;;;4955271;28;20072;-71
2022/02/15 10:35:03;;;;;;;6.28;3.47;;;;;;;;;;4968720;28;20034;-72
2022/02/15 10:37:33;;;;;;;6.32;3.70;;;;;;;;;;4963299;28;20143;-71
2022/02/15 10:40:02;;;;;;;7.97;3.80;;;;;;;;;;4938406;28;20154;-71
2022/02/15 10:42:31;;;;;;;7.30;3.60;;;;;;;;;;4973783;28;20047;-72
2022/02/15 10:45:00;;;;;;;13.13;3.67;;;;;;;;;;4956537;28;20046;-72
2022/02/15 10:47:33;;;;;;;6.82;4.43;;;;;;;;;;4971317;28;20039;-70
2022/02/15 10:50:08;;;;;;;4.75;3.05;;;;;;;;;;4960700;28;20459;-71
2022/02/15 10:52:36;;;;;;;7.18;4.15;;;;;;;;;;4951595;28;20057;-70
2022/02/15 10:55:04;;;;;;;4.63;2.60;;;;;;;;;;4956613;29;20525;-71
2022/02/15 10:57:32;;;;;;;7.63;3.58;;;;;;;;;;4956264;29;20043;-71
2022/02/15 11:00:03;;;;;;;7.30;3.38;;;;;;;;;;4956377;29;20044;-71
2022/02/15 11:02:37;;;;;;;7.55;2.80;;;;;;;;;;4971591;28;20089;-73
2022/02/15 11:05:08;;;;;;;6.90;2.30;;;;;;;;;;4962622;28;20063;-71
2022/02/15 11:07:39;;;;;;;7.10;2.10;;;;;;;;;;4967554;28;20129;-72
2022/02/15 11:10:24;;;;;;;5.78;2.03;;;;;;;;;;4967084;28;20130;-71
2022/02/15 11:12:59;;;;;;;9.38;2.03;;;;;;;;;;4966992;28;20135;-71
2022/02/15 11:15:27;;;;;;;5.30;2.05;;;;;;;;;;4966595;28;20047;-71
2022/02/15 11:17:59;;;;;;;2.53;1.90;;;;;;;;;;4948146;28;20094;-73
2022/02/15 11:20:50;;;;;;;8.75;2.72;;;;;;;;;;4941152;28;20043;-73
2022/02/15 11:23:17;;;;;;;16.73;3.20;;;;;;;;;;4966688;28;20554;-72
2022/02/15 11:25:49;;;;;;;11.93;3.20;;;;;;;;;;4966279;28;20126;-72
2022/02/15 11:28:18;;;;;;;6.35;2.60;;;;;;;;;;4965173;28;20044;-71
2022/02/15 11:30:47;;;;;;;6.05;2.60;;;;;;;;;;4949264;28;20051;-73
2022/02/15 11:33:22;;;;;;;8.10;3.05;;;;;;;;;;4966954;28;20521;-72
2022/02/15 11:35:53;;;;;;;10.60;2.50;;;;;;;;;;4966226;28;20043;-71
2022/02/15 11:38:20;;;;;;;11.93;2.60;;;;;;;;;;4964909;28;20384;-70
2022/02/15 11:41:03;;;;;;;5.70;2.55;;;;;;;;;;4948914;28;20035;-71
2022/02/15 11:43:31;;;;;;;8.65;3.20;;;;;;;;;;4964405;28;20041;-71
2022/02/15 11:45:59;;;;;;;8.98;2.95;;;;;;;;;;4956577;29;20129;-71
2022/02/15 11:48:38;;;;;;;11.60;2.67;;;;;;;;;;4956784;29;20070;-71
2022/02/15 11:51:17;;;;;;;7.55;2.35;;;;;;;;;;4956784;29;20159;-71
2022/02/15 11:53:45;;;;;;;6.53;2.30;;;;;;;;;;4956908;29;20051;-70
2022/02/15 11:56:20;;;;;;;7.30;2.08;;;;;;;;;;4956548;29;20043;-70
2022/02/15 11:58:50;;;;;;;4.10;1.70;;;;;;;;;;4956175;28;20039;-71
2022/02/15 12:01:22;;;;;;;5.30;2.40;;;;;;;;;;4963615;28;20059;-70
2022/02/15 12:03:51;;;;;;;9.23;2.90;;;;;;;;;;4966141;28;20053;-71
2022/02/15 12:06:19;;;;;;;7.20;2.10;;;;;;;;;;4966255;28;20035;-70
2022/02/15 12:08:57;;;;;;;8.00;2.67;;;;;;;;;;4949718;28;20414;-73
2022/02/15 12:11:45;;;;;;;2.42;2.22;;;;;;;;;;4975661;28;20043;-71
2022/02/15 12:14:23;;;;;;;5.72;2.70;;;;;;;;;;4974506;28;20043;-70
2022/02/15 12:16:54;;;;;;;4.80;2.90;;;;;;;;;;4968095;28;20057;-70
2022/02/15 12:19:25;;;;;;;8.73;4.40;;;;;;;;;;4966135;28;20039;-72
2022/02/15 12:21:57;;;;;;;10.32;4.00;;;;;;;;;;4965017;28;20517;-71
2022/02/15 12:24:27;;;;;;;7.57;3.67;;;;;;;;;;4961757;28;20410;-70
2022/02/15 12:26:57;;;;;;;10.40;4.22;;;;;;;;;;4960363;28;20153;-71
2022/02/15 12:29:29;;;;;;;12.30;4.00;;;;;;;;;;4979964;28;20077;-69
2022/02/15 12:31:57;;;;;;;13.13;3.80;;;;;;;;;;4981974;28;20046;-71
2022/02/15 12:34:27;;;;;;;9.35;3.72;;;;;;;;;;4984398;28;20485;-71
2022/02/15 12:37:18;;;;;;;6.50;3.85;;;;;;;;;;4969970;28;20407;-71
2022/02/15 12:39:46;;;;;;;13.38;3.85;;;;;;;;;;4977478;28;20125;-71
2022/02/15 12:42:14;;;;;;;10.85;3.88;;;;;;;;;;4977185;28;20053;-70
2022/02/15 12:44:58;;;;;;;6.32;3.55;;;;;;;;;;4977861;28;20046;-71
2022/02/15 12:47:27;;;;;;;7.35;3.70;;;;;;;;;;4975321;28;20046;-71
2022/02/15 12:49:57;;;;;;;9.10;4.50;;;;;;;;;;4983547;28;20159;-73
2022/02/15 12:52:28;;;;;;;7.63;3.42;;;;;;;;;;4977601;28;20045;-72
2022/02/15 12:54:56;;;;;;;12.00;4.03;;;;;;;;;;4948619;28;20043;-71
2022/02/15 12:57:39;;;;;;;5.20;3.88;;;;;;;;;;4945663;28;20054;-71
2022/02/15 13:00:09;;;;;;;6.68;3.08;;;;;;;;;;4973907;28;20117;-71
2022/02/15 13:02:37;;;;;;;12.43;3.78;;;;;;;;;;4974356;28;20446;-71
2022/02/15 13:05:09;;;;;;;10.25;3.45;;;;;;;;;;4974153;28;20438;-70
2022/02/15 13:07:48;;;;;;;11.15;3.10;;;;;;;;;;4952212;29;20043;-72
2022/02/15 13:10:15;;;;;;;8.75;2.85;;;;;;;;;;4952309;28;20051;-71
2022/02/15 13:12:43;;;;;;;8.77;2.97;;;;;;;;;;4940708;29;20053;-72
2022/02/15 13:15:11;;;;;;;11.23;3.38;;;;;;;;;;4969800;28;20046;-72
2022/02/15 13:17:45;;;;;;;10.80;2.90;;;;;;;;;;4953918;28;20422;-72
2022/02/15 13:20:17;;;;;;;9.88;3.08;;;;;;;;;;4954705;29;20054;-69
2022/02/15 13:22:45;;;;;;;12.15;3.45;;;;;;;;;;4954457;29;20043;-70
2022/02/15 13:25:17;;;;;;;9.20;3.17;;;;;;;;;;4938249;29;20410;-70
2022/02/15 13:27:48;;;;;;;11.55;3.55;;;;;;;;;;4936613;29;20410;-72
2022/02/15 13:30:27;;;;;;;5.80;3.03;;;;;;;;;;4953729;28;20139;-69
2022/02/15 13:32:58;;;;;;;7.47;3.15;;;;;;;;;;4964088;28;20125;-70
2022/02/15 13:35:26;;;;;;;9.20;2.78;;;;;;;;;;4954939;28;20066;-69
2022/02/15 13:37:58;;;;;;;7.80;2.88;;;;;;;;;;4972609;28;20050;-73
2022/02/15 13:40:27;;;;;;;12.32;2.95;;;;;;;;;;4967386;28;20051;-71
2022/02/15 13:42:55;;;;;;;9.85;2.75;;;;;;;;;;4973122;28;20031;-72
2022/02/15 13:45:30;;;;;;;;;;;;;;;;;;4972241;28;20035;-71
2022/02/15 13:48:00;;;;;;;10.25;3.00;;;;;;;;;;4973240;28;19944;-70
2022/02/15 13:50:29;;;;;;;11.15;2.88;;;;;;;;;;4947905;28;20126;-72
2022/02/15 13:52:58;;;;;;;7.10;2.90;;;;;;;;;;4973004;28;20102;-70
2022/02/15 13:55:25;;;;;;;7.18;2.50;;;;;;;;;;4973303;28;20043;-71
2022/02/15 13:57:53;;;;;;;9.32;2.28;;;;;;;;;;4972705;28;20045;-72
2022/02/15 14:00:24;;;;;;;9.77;2.45;;;;;;;;;;4971158;28;20122;-72
2022/02/15 14:02:54;;;;;;;10.70;3.00;;;;;;;;;;4973349;28;20041;-70
2022/02/15 14:05:22;;;;;;;6.10;2.67;;;;;;;;;;4970552;28;20117;-72
2022/02/15 14:07:50;;;;;;;8.05;2.78;;;;;;;;;;4972935;28;20062;-70
2022/02/15 14:10:17;;;;;;;3.97;2.35;;;;;;;;;;4972976;28;20045;-70
2022/02/15 14:12:46;;;;;;;8.65;2.45;;;;;;;;;;4967874;28;20395;-70
2022/02/15 14:15:17;;;;;;;15.32;2.90;;;;;;;;;;4966172;28;20049;-70
2022/02/15 14:17:48;;;;;;;9.38;2.53;;;;;;;;;;4973582;28;20047;-70
2022/02/15 14:20:17;;;;;;;12.05;3.15;;;;;;;;;;4963905;28;20075;-72
2022/02/15 14:22:51;;;;;;;9.68;2.70;;;;;;;;;;4942532;28;20047;-72
2022/02/15 14:25:20;;;;;;;9.10;2.67;;;;;;;;;;4977408;28;20047;-70
2022/02/15 14:27:50;;;;;;;11.13;3.05;;;;;;;;;;4976947;28;20089;-70
2022/02/15 14:30:19;;;;;;;13.98;2.90;;;;;;;;;;4969129;28;20464;-70
2022/02/15 14:32:48;;;;;;;15.55;3.15;;;;;;;;;;4959517;28;20141;-70
2022/02/15 14:35:16;;;;;;;16.48;2.97;;;;;;;;;;4954405;28;20205;-72
2022/02/15 14:37:45;;;;;;;16.13;3.55;;;;;;;;;;4967617;28;20035;-71
2022/02/15 14:40:13;;;;;;;25.27;3.08;;;;;;;;;;4965194;28;20122;-71
2022/02/15 14:42:41;;;;;;;18.05;3.13;;;;;;;;;;4948043;28;20046;-68
2022/02/15 14:45:09;;;;;;;15.23;2.65;;;;;;;;;;4966786;28;20035;-68
2022/02/15 14:47:41;;;;;;;12.27;2.45;;;;;;;;;;4943448;28;20082;-70
2022/02/15 14:50:10;;;;;;;14.82;3.20;;;;;;;;;;4948111;28;20424;-69
2022/02/15 14:52:37;;;;;;;21.20;4.40;;;;;;;;;;4966210;28;20123;-71
2022/02/15 14:55:10;;;;;;;12.85;2.55;;;;;;;;;;4967297;28;20117;-70
2022/02/15 14:57:40;;;;;;;13.27;2.70;;;;;;;;;;4966398;28;20474;-71
2022/02/15 15:00:13;;;;;;;21.58;3.47;;;;;;;;;;4966187;28;20034;-70
2022/02/15 15:02:41;;;;;;;15.60;3.17;;;;;;;;;;4965461;28;20042;-69
2022/02/15 15:05:11;;;;;;;23.35;3.80;;;;;;;;;;4960798;28;20043;-71
2022/02/15 15:07:39;;;;;;;16.10;2.80;;;;;;;;;;4964779;28;20500;-71
2022/02/15 15:10:10;;;;;;;19.35;3.00;;;;;;;;;;4966380;28;20071;-70